sensor_id;sensor_type;location;lat;lon;timestamp;P1;durP1;ratioP1;P2;durP2;ratioP2
28910;SDS011;16028;42.642;23.310;2023-08-07T00:00:10;2.03;;;1.83;;
28910;SDS011;16028;42.642;23.310;2023-08-07T00:02:38;1.75;;;1.65;;
28910;SDS011;16028;42.642;23.310;2023-08-07T00:05:05;1.80;;;1.70;;
28910;SDS011;16028;42.642;23.310;2023-08-07T00:07:32;2.33;;;1.90;;
28910;SDS011;16028;42.642;23.310;2023-08-07T00:09:59;2.55;;;1.80;;
28910;SDS011;16028;42.642;23.310;2023-08-07T00:12:28;1.67;;;1.58;;
28910;SDS011;16028;42.642;23.310;2023-08-07T00:14:55;1.70;;;1.60;;
28910;SDS011;16028;42.642;23.310;2023-08-07T00:17:21;1.70;;;1.60;;
28910;SDS011;16028;42.642;23.310;2023-08-07T00:19:49;1.65;;;1.55;;
28910;SDS011;16028;42.642;23.310;2023-08-07T00:22:16;3.10;;;1.98;;
28910;SDS011;16028;42.642;23.310;2023-08-07T00:24:43;1.80;;;1.70;;
28910;SDS011;16028;42.642;23.310;2023-08-07T00:27:10;2.72;;;1.98;;
28910;SDS011;16028;42.642;23.310;2023-08-07T00:29:37;2.15;;;1.95;;
28910;SDS011;16028;42.642;23.310;2023-08-07T00:32:04;2.05;;;1.90;;
28910;SDS011;16028;42.642;23.310;2023-08-07T00:34:31;2.70;;;2.25;;
28910;SDS011;16028;42.642;23.310;2023-08-07T00:36:59;2.10;;;1.95;;
28910;SDS011;16028;42.642;23.310;2023-08-07T00:39:26;3.75;;;2.25;;
28910;SDS011;16028;42.642;23.310;2023-08-07T00:41:53;2.28;;;2.08;;
28910;SDS011;16028;42.642;23.310;2023-08-07T00:44:20;1.85;;;1.75;;
28910;SDS011;16028;42.642;23.310;2023-08-07T00:46:48;2.08;;;1.98;;
28910;SDS011;16028;42.642;23.310;2023-08-07T00:49:15;1.88;;;1.77;;
28910;SDS011;16028;42.642;23.310;2023-08-07T00:51:43;4.00;;;2.10;;
28910;SDS011;16028;42.642;23.310;2023-08-07T00:54:11;2.40;;;2.08;;
28910;SDS011;16028;42.642;23.310;2023-08-07T00:56:42;4.25;;;2.03;;
28910;SDS011;16028;42.642;23.310;2023-08-07T00:59:09;2.42;;;2.22;;
28910;SDS011;16028;42.642;23.310;2023-08-07T01:01:37;3.92;;;2.50;;
28910;SDS011;16028;42.642;23.310;2023-08-07T01:04:04;4.75;;;2.40;;
28910;SDS011;16028;42.642;23.310;2023-08-07T01:06:30;3.83;;;2.30;;
28910;SDS011;16028;42.642;23.310;2023-08-07T01:08:56;2.58;;;2.38;;
28910;SDS011;16028;42.642;23.310;2023-08-07T01:11:28;2.33;;;2.13;;
28910;SDS011;16028;42.642;23.310;2023-08-07T01:14:02;2.33;;;2.10;;
28910;SDS011;16028;42.642;23.310;2023-08-07T01:16:35;2.60;;;2.40;;
28910;SDS011;16028;42.642;23.310;2023-08-07T01:19:12;2.20;;;2.05;;
28910;SDS011;16028;42.642;23.310;2023-08-07T01:21:57;2.80;;;2.13;;
28910;SDS011;16028;42.642;23.310;2023-08-07T01:24:31;2.65;;;2.45;;
28910;SDS011;16028;42.642;23.310;2023-08-07T01:26:58;3.45;;;1.85;;
28910;SDS011;16028;42.642;23.310;2023-08-07T01:29:34;2.42;;;2.20;;
28910;SDS011;16028;42.642;23.310;2023-08-07T01:32:05;4.63;;;2.28;;
28910;SDS011;16028;42.642;23.310;2023-08-07T01:34:35;2.35;;;2.15;;
28910;SDS011;16028;42.642;23.310;2023-08-07T01:37:06;2.47;;;2.28;;
28910;SDS011;16028;42.642;23.310;2023-08-07T01:39:36;4.65;;;2.53;;
28910;SDS011;16028;42.642;23.310;2023-08-07T01:42:04;2.60;;;2.40;;
28910;SDS011;16028;42.642;23.310;2023-08-07T01:44:31;2.70;;;2.50;;
28910;SDS011;16028;42.642;23.310;2023-08-07T01:46:58;3.63;;;2.20;;
28910;SDS011;16028;42.642;23.310;2023-08-07T01:49:25;2.60;;;2.40;;
28910;SDS011;16028;42.642;23.310;2023-08-07T01:51:51;3.65;;;2.15;;
28910;SDS011;16028;42.642;23.310;2023-08-07T01:54:20;2.33;;;2.13;;
28910;SDS011;16028;42.642;23.310;2023-08-07T01:56:46;2.65;;;2.45;;
28910;SDS011;16028;42.642;23.310;2023-08-07T01:59:13;2.65;;;2.20;;
28910;SDS011;16028;42.642;23.310;2023-08-07T02:01:40;2.55;;;2.30;;
28910;SDS011;16028;42.642;23.310;2023-08-07T02:04:06;2.17;;;1.98;;
28910;SDS011;16028;42.642;23.310;2023-08-07T02:06:33;2.70;;;2.22;;
28910;SDS011;16028;42.642;23.310;2023-08-07T02:09:00;3.67;;;2.38;;
28910;SDS011;16028;42.642;23.310;2023-08-07T02:11:28;2.75;;;2.47;;
28910;SDS011;16028;42.642;23.310;2023-08-07T02:13:55;2.30;;;2.10;;
28910;SDS011;16028;42.642;23.310;2023-08-07T02:16:22;5.43;;;2.60;;
28910;SDS011;16028;42.642;23.310;2023-08-07T02:18:48;2.72;;;2.53;;
28910;SDS011;16028;42.642;23.310;2023-08-07T02:21:15;2.65;;;2.45;;
28910;SDS011;16028;42.642;23.310;2023-08-07T02:23:42;3.05;;;2.22;;
28910;SDS011;16028;42.642;23.310;2023-08-07T02:26:10;1.88;;;1.77;;
28910;SDS011;16028;42.642;23.310;2023-08-07T02:28:38;3.17;;;2.35;;
28910;SDS011;16028;42.642;23.310;2023-08-07T02:31:04;2.35;;;2.15;;
28910;SDS011;16028;42.642;23.310;2023-08-07T02:33:31;2.65;;;2.30;;
28910;SDS011;16028;42.642;23.310;2023-08-07T02:35:58;6.18;;;2.25;;
28910;SDS011;16028;42.642;23.310;2023-08-07T02:38:25;2.35;;;2.15;;
28910;SDS011;16028;42.642;23.310;2023-08-07T02:40:52;2.85;;;2.65;;
28910;SDS011;16028;42.642;23.310;2023-08-07T02:43:18;4.82;;;2.70;;
28910;SDS011;16028;42.642;23.310;2023-08-07T02:45:46;5.60;;;2.25;;
28910;SDS011;16028;42.642;23.310;2023-08-07T02:48:13;3.88;;;2.45;;
28910;SDS011;16028;42.642;23.310;2023-08-07T02:50:40;4.00;;;2.65;;
28910;SDS011;16028;42.642;23.310;2023-08-07T02:53:07;4.60;;;2.70;;
28910;SDS011;16028;42.642;23.310;2023-08-07T02:55:33;3.20;;;2.35;;
28910;SDS011;16028;42.642;23.310;2023-08-07T02:58:00;4.35;;;2.60;;
28910;SDS011;16028;42.642;23.310;2023-08-07T03:00:27;3.10;;;2.35;;
28910;SDS011;16028;42.642;23.310;2023-08-07T03:02:55;2.60;;;2.40;;
28910;SDS011;16028;42.642;23.310;2023-08-07T03:05:22;3.50;;;2.65;;
28910;SDS011;16028;42.642;23.310;2023-08-07T03:07:48;5.40;;;2.40;;
28910;SDS011;16028;42.642;23.310;2023-08-07T03:10:15;4.70;;;2.72;;
28910;SDS011;16028;42.642;23.310;2023-08-07T03:12:42;5.55;;;2.92;;
28910;SDS011;16028;42.642;23.310;2023-08-07T03:15:08;3.00;;;2.70;;
28910;SDS011;16028;42.642;23.310;2023-08-07T03:17:36;3.78;;;2.63;;
28910;SDS011;16028;42.642;23.310;2023-08-07T03:20:04;3.00;;;2.65;;
28910;SDS011;16028;42.642;23.310;2023-08-07T03:22:31;6.10;;;3.55;;
28910;SDS011;16028;42.642;23.310;2023-08-07T03:24:58;3.10;;;2.80;;
28910;SDS011;16028;42.642;23.310;2023-08-07T03:27:25;5.63;;;3.33;;
28910;SDS011;16028;42.642;23.310;2023-08-07T03:29:52;3.97;;;3.58;;
28910;SDS011;16028;42.642;23.310;2023-08-07T03:32:18;3.85;;;3.50;;
28910;SDS011;16028;42.642;23.310;2023-08-07T03:34:45;4.28;;;3.88;;
28910;SDS011;16028;42.642;23.310;2023-08-07T03:37:13;4.88;;;3.85;;
28910;SDS011;16028;42.642;23.310;2023-08-07T03:39:40;4.10;;;3.70;;
28910;SDS011;16028;42.642;23.310;2023-08-07T03:42:08;4.35;;;3.88;;
28910;SDS011;16028;42.642;23.310;2023-08-07T03:44:35;4.50;;;4.10;;
28910;SDS011;16028;42.642;23.310;2023-08-07T03:47:02;4.72;;;3.60;;
28910;SDS011;16028;42.642;23.310;2023-08-07T03:49:29;4.20;;;3.83;;
28910;SDS011;16028;42.642;23.310;2023-08-07T03:51:55;4.88;;;4.10;;
28910;SDS011;16028;42.642;23.310;2023-08-07T03:54:25;3.70;;;3.40;;
28910;SDS011;16028;42.642;23.310;2023-08-07T03:56:52;6.28;;;3.58;;
28910;SDS011;16028;42.642;23.310;2023-08-07T03:59:19;3.97;;;3.42;;
28910;SDS011;16028;42.642;23.310;2023-08-07T04:01:45;3.88;;;3.58;;
28910;SDS011;16028;42.642;23.310;2023-08-07T04:04:15;3.90;;;3.50;;
28910;SDS011;16028;42.642;23.310;2023-08-07T04:06:41;3.75;;;3.45;;
28910;SDS011;16028;42.642;23.310;2023-08-07T04:09:09;4.20;;;3.60;;
28910;SDS011;16028;42.642;23.310;2023-08-07T04:11:37;5.50;;;3.17;;
28910;SDS011;16028;42.642;23.310;2023-08-07T04:14:04;4.57;;;3.30;;
28910;SDS011;16028;42.642;23.310;2023-08-07T04:16:31;5.68;;;4.00;;
28910;SDS011;16028;42.642;23.310;2023-08-07T04:18:57;3.78;;;3.30;;
28910;SDS011;16028;42.642;23.310;2023-08-07T04:21:24;6.35;;;3.22;;
28910;SDS011;16028;42.642;23.310;2023-08-07T04:23:51;7.00;;;3.42;;
28910;SDS011;16028;42.642;23.310;2023-08-07T04:26:17;3.55;;;3.25;;
28910;SDS011;16028;42.642;23.310;2023-08-07T04:28:46;3.42;;;3.05;;
28910;SDS011;16028;42.642;23.310;2023-08-07T04:31:12;3.10;;;2.90;;
28910;SDS011;16028;42.642;23.310;2023-08-07T04:33:39;3.22;;;2.92;;
28910;SDS011;16028;42.642;23.310;2023-08-07T04:36:06;4.13;;;3.20;;
28910;SDS011;16028;42.642;23.310;2023-08-07T04:38:32;3.97;;;3.50;;
28910;SDS011;16028;42.642;23.310;2023-08-07T04:40:59;6.85;;;4.00;;
28910;SDS011;16028;42.642;23.310;2023-08-07T04:43:26;3.67;;;3.17;;
28910;SDS011;16028;42.642;23.310;2023-08-07T04:45:54;4.25;;;3.35;;
28910;SDS011;16028;42.642;23.310;2023-08-07T04:48:21;5.78;;;3.90;;
28910;SDS011;16028;42.642;23.310;2023-08-07T04:50:50;3.70;;;3.30;;
28910;SDS011;16028;42.642;23.310;2023-08-07T04:53:17;3.55;;;3.33;;
28910;SDS011;16028;42.642;23.310;2023-08-07T04:55:43;3.45;;;3.15;;
28910;SDS011;16028;42.642;23.310;2023-08-07T04:58:10;4.60;;;3.65;;
28910;SDS011;16028;42.642;23.310;2023-08-07T05:00:37;7.40;;;3.38;;
28910;SDS011;16028;42.642;23.310;2023-08-07T05:03:05;4.07;;;3.42;;
28910;SDS011;16028;42.642;23.310;2023-08-07T05:05:32;3.75;;;3.17;;
28910;SDS011;16028;42.642;23.310;2023-08-07T05:07:58;8.00;;;3.83;;
28910;SDS011;16028;42.642;23.310;2023-08-07T05:10:25;6.30;;;3.40;;
28910;SDS011;16028;42.642;23.310;2023-08-07T05:12:52;3.17;;;2.97;;
28910;SDS011;16028;42.642;23.310;2023-08-07T05:15:20;4.55;;;3.15;;
28910;SDS011;16028;42.642;23.310;2023-08-07T05:17:47;3.65;;;3.30;;
28910;SDS011;16028;42.642;23.310;2023-08-07T05:20:16;4.60;;;3.17;;
28910;SDS011;16028;42.642;23.310;2023-08-07T05:22:43;6.82;;;3.80;;
28910;SDS011;16028;42.642;23.310;2023-08-07T05:25:10;4.95;;;2.85;;
28910;SDS011;16028;42.642;23.310;2023-08-07T05:27:40;3.67;;;3.00;;
28910;SDS011;16028;42.642;23.310;2023-08-07T05:30:07;3.40;;;3.10;;
28910;SDS011;16028;42.642;23.310;2023-08-07T05:32:34;3.92;;;3.08;;
28910;SDS011;16028;42.642;23.310;2023-08-07T05:35:03;4.18;;;3.00;;
28910;SDS011;16028;42.642;23.310;2023-08-07T05:37:31;5.05;;;3.67;;
28910;SDS011;16028;42.642;23.310;2023-08-07T05:39:58;5.18;;;3.30;;
28910;SDS011;16028;42.642;23.310;2023-08-07T05:42:25;5.20;;;3.33;;
28910;SDS011;16028;42.642;23.310;2023-08-07T05:44:52;5.15;;;4.00;;
28910;SDS011;16028;42.642;23.310;2023-08-07T05:47:18;5.35;;;3.50;;
28910;SDS011;16028;42.642;23.310;2023-08-07T05:49:45;3.22;;;2.95;;
28910;SDS011;16028;42.642;23.310;2023-08-07T05:52:13;2.80;;;2.60;;
28910;SDS011;16028;42.642;23.310;2023-08-07T05:54:42;3.55;;;3.25;;
28910;SDS011;16028;42.642;23.310;2023-08-07T05:57:09;4.70;;;3.17;;
28910;SDS011;16028;42.642;23.310;2023-08-07T05:59:36;5.00;;;3.10;;
28910;SDS011;16028;42.642;23.310;2023-08-07T06:02:05;5.35;;;3.22;;
28910;SDS011;16028;42.642;23.310;2023-08-07T06:04:36;4.30;;;3.22;;
28910;SDS011;16028;42.642;23.310;2023-08-07T06:07:03;5.70;;;2.88;;
28910;SDS011;16028;42.642;23.310;2023-08-07T06:09:30;3.75;;;2.72;;
28910;SDS011;16028;42.642;23.310;2023-08-07T06:11:58;5.45;;;3.40;;
28910;SDS011;16028;42.642;23.310;2023-08-07T06:14:25;5.50;;;3.15;;
28910;SDS011;16028;42.642;23.310;2023-08-07T06:16:53;4.22;;;3.20;;
28910;SDS011;16028;42.642;23.310;2023-08-07T06:19:22;5.43;;;3.50;;
28910;SDS011;16028;42.642;23.310;2023-08-07T06:21:52;3.30;;;3.00;;
28910;SDS011;16028;42.642;23.310;2023-08-07T06:24:19;5.72;;;3.40;;
28910;SDS011;16028;42.642;23.310;2023-08-07T06:26:45;3.63;;;3.33;;
28910;SDS011;16028;42.642;23.310;2023-08-07T06:29:13;3.72;;;2.60;;
28910;SDS011;16028;42.642;23.310;2023-08-07T06:31:40;6.05;;;3.72;;
28910;SDS011;16028;42.642;23.310;2023-08-07T06:34:07;3.63;;;2.63;;
28910;SDS011;16028;42.642;23.310;2023-08-07T06:36:35;2.88;;;2.67;;
28910;SDS011;16028;42.642;23.310;2023-08-07T06:39:01;4.38;;;2.30;;
28910;SDS011;16028;42.642;23.310;2023-08-07T06:41:29;1.88;;;1.70;;
28910;SDS011;16028;42.642;23.310;2023-08-07T06:43:55;1.90;;;1.70;;
28910;SDS011;16028;42.642;23.310;2023-08-07T06:46:24;2.83;;;1.70;;
28910;SDS011;16028;42.642;23.310;2023-08-07T06:48:52;1.60;;;1.50;;
28910;SDS011;16028;42.642;23.310;2023-08-07T06:51:19;1.80;;;1.70;;
28910;SDS011;16028;42.642;23.310;2023-08-07T06:53:46;2.92;;;2.00;;
28910;SDS011;16028;42.642;23.310;2023-08-07T06:56:13;4.35;;;2.00;;
28910;SDS011;16028;42.642;23.310;2023-08-07T06:58:39;1.75;;;1.63;;
28910;SDS011;16028;42.642;23.310;2023-08-07T07:01:06;1.90;;;1.80;;
28910;SDS011;16028;42.642;23.310;2023-08-07T07:03:35;1.65;;;1.55;;
28910;SDS011;16028;42.642;23.310;2023-08-07T07:06:01;3.00;;;2.00;;
28910;SDS011;16028;42.642;23.310;2023-08-07T07:08:28;1.52;;;1.42;;
28910;SDS011;16028;42.642;23.310;2023-08-07T07:10:55;2.13;;;1.67;;
28910;SDS011;16028;42.642;23.310;2023-08-07T07:13:23;3.53;;;1.88;;
28910;SDS011;16028;42.642;23.310;2023-08-07T07:15:52;3.28;;;1.90;;
28910;SDS011;16028;42.642;23.310;2023-08-07T07:18:20;3.03;;;2.00;;
28910;SDS011;16028;42.642;23.310;2023-08-07T07:20:48;5.05;;;2.17;;
28910;SDS011;16028;42.642;23.310;2023-08-07T07:23:22;2.38;;;1.85;;
28910;SDS011;16028;42.642;23.310;2023-08-07T07:25:49;2.90;;;1.90;;
28910;SDS011;16028;42.642;23.310;2023-08-07T07:28:16;3.25;;;1.73;;
28910;SDS011;16028;42.642;23.310;2023-08-07T07:30:43;2.00;;;1.90;;
28910;SDS011;16028;42.642;23.310;2023-08-07T07:33:09;1.85;;;1.70;;
28910;SDS011;16028;42.642;23.310;2023-08-07T07:35:38;3.30;;;1.80;;
28910;SDS011;16028;42.642;23.310;2023-08-07T07:38:06;2.17;;;1.98;;
28910;SDS011;16028;42.642;23.310;2023-08-07T07:40:35;2.03;;;1.85;;
28910;SDS011;16028;42.642;23.310;2023-08-07T07:43:05;2.20;;;1.92;;
28910;SDS011;16028;42.642;23.310;2023-08-07T07:45:31;2.30;;;2.10;;
28910;SDS011;16028;42.642;23.310;2023-08-07T07:47:59;2.03;;;1.92;;
28910;SDS011;16028;42.642;23.310;2023-08-07T07:50:25;3.47;;;1.77;;
28910;SDS011;16028;42.642;23.310;2023-08-07T07:52:52;2.53;;;1.80;;
28910;SDS011;16028;42.642;23.310;2023-08-07T07:55:20;4.95;;;2.17;;
28910;SDS011;16028;42.642;23.310;2023-08-07T07:57:47;3.45;;;1.73;;
28910;SDS011;16028;42.642;23.310;2023-08-07T08:00:14;3.40;;;1.95;;
28910;SDS011;16028;42.642;23.310;2023-08-07T08:02:41;1.60;;;1.40;;
28910;SDS011;16028;42.642;23.310;2023-08-07T08:05:09;3.75;;;1.80;;
28910;SDS011;16028;42.642;23.310;2023-08-07T08:07:38;2.75;;;2.10;;
28910;SDS011;16028;42.642;23.310;2023-08-07T08:10:06;4.63;;;2.03;;
28910;SDS011;16028;42.642;23.310;2023-08-07T08:12:35;2.30;;;1.80;;
28910;SDS011;16028;42.642;23.310;2023-08-07T08:15:02;2.95;;;2.08;;
28910;SDS011;16028;42.642;23.310;2023-08-07T08:17:30;1.92;;;1.67;;
28910;SDS011;16028;42.642;23.310;2023-08-07T08:19:57;2.10;;;1.90;;
28910;SDS011;16028;42.642;23.310;2023-08-07T08:22:24;3.78;;;1.75;;
28910;SDS011;16028;42.642;23.310;2023-08-07T08:24:51;2.28;;;1.85;;
28910;SDS011;16028;42.642;23.310;2023-08-07T08:27:18;5.03;;;2.00;;
28910;SDS011;16028;42.642;23.310;2023-08-07T08:29:46;3.30;;;1.80;;
28910;SDS011;16028;42.642;23.310;2023-08-07T08:32:13;2.42;;;1.58;;
28910;SDS011;16028;42.642;23.310;2023-08-07T08:34:40;3.17;;;2.05;;
28910;SDS011;16028;42.642;23.310;2023-08-07T08:37:06;2.88;;;2.00;;
28910;SDS011;16028;42.642;23.310;2023-08-07T08:39:35;2.47;;;1.98;;
28910;SDS011;16028;42.642;23.310;2023-08-07T08:42:02;4.45;;;2.10;;
28910;SDS011;16028;42.642;23.310;2023-08-07T08:44:30;3.03;;;2.08;;
28910;SDS011;16028;42.642;23.310;2023-08-07T08:47:06;6.25;;;2.30;;
28910;SDS011;16028;42.642;23.310;2023-08-07T08:49:35;1.80;;;1.70;;
28910;SDS011;16028;42.642;23.310;2023-08-07T08:52:09;2.35;;;1.80;;
28910;SDS011;16028;42.642;23.310;2023-08-07T08:54:36;2.33;;;1.85;;
28910;SDS011;16028;42.642;23.310;2023-08-07T08:57:03;2.45;;;2.13;;
28910;SDS011;16028;42.642;23.310;2023-08-07T08:59:32;2.28;;;1.83;;
28910;SDS011;16028;42.642;23.310;2023-08-07T09:01:59;2.65;;;1.98;;
28910;SDS011;16028;42.642;23.310;2023-08-07T09:04:28;2.10;;;1.90;;
28910;SDS011;16028;42.642;23.310;2023-08-07T09:06:54;2.15;;;1.90;;
28910;SDS011;16028;42.642;23.310;2023-08-07T09:09:22;2.85;;;2.00;;
28910;SDS011;16028;42.642;23.310;2023-08-07T09:11:49;2.85;;;1.92;;
28910;SDS011;16028;42.642;23.310;2023-08-07T09:14:19;3.88;;;1.88;;
28910;SDS011;16028;42.642;23.310;2023-08-07T09:16:50;2.75;;;2.00;;
28910;SDS011;16028;42.642;23.310;2023-08-07T09:19:17;2.03;;;1.75;;
28910;SDS011;16028;42.642;23.310;2023-08-07T09:21:45;2.28;;;1.90;;
28910;SDS011;16028;42.642;23.310;2023-08-07T09:24:12;1.80;;;1.70;;
28910;SDS011;16028;42.642;23.310;2023-08-07T09:26:41;1.95;;;1.77;;
28910;SDS011;16028;42.642;23.310;2023-08-07T09:29:09;2.10;;;1.85;;
28910;SDS011;16028;42.642;23.310;2023-08-07T09:31:36;2.47;;;1.95;;
28910;SDS011;16028;42.642;23.310;2023-08-07T09:34:04;3.88;;;1.90;;
28910;SDS011;16028;42.642;23.310;2023-08-07T09:36:31;2.22;;;1.92;;
28910;SDS011;16028;42.642;23.310;2023-08-07T09:39:01;2.17;;;1.63;;
28910;SDS011;16028;42.642;23.310;2023-08-07T09:41:29;1.80;;;1.70;;
28910;SDS011;16028;42.642;23.310;2023-08-07T09:43:56;2.00;;;1.90;;
28910;SDS011;16028;42.642;23.310;2023-08-07T09:46:23;2.85;;;2.00;;
28910;SDS011;16028;42.642;23.310;2023-08-07T09:48:52;1.95;;;1.67;;
28910;SDS011;16028;42.642;23.310;2023-08-07T09:51:23;1.70;;;1.60;;
28910;SDS011;16028;42.642;23.310;2023-08-07T09:53:50;3.85;;;1.77;;
28910;SDS011;16028;42.642;23.310;2023-08-07T09:56:18;1.50;;;1.40;;
28910;SDS011;16028;42.642;23.310;2023-08-07T09:58:48;2.05;;;1.85;;
28910;SDS011;16028;42.642;23.310;2023-08-07T10:01:15;2.05;;;1.90;;
28910;SDS011;16028;42.642;23.310;2023-08-07T10:03:43;2.10;;;1.90;;
28910;SDS011;16028;42.642;23.310;2023-08-07T10:06:11;2.20;;;2.00;;
28910;SDS011;16028;42.642;23.310;2023-08-07T10:08:38;3.08;;;2.08;;
28910;SDS011;16028;42.642;23.310;2023-08-07T10:11:07;5.70;;;1.80;;
28910;SDS011;16028;42.642;23.310;2023-08-07T10:13:37;2.80;;;2.10;;
28910;SDS011;16028;42.642;23.310;2023-08-07T10:16:04;7.10;;;1.95;;
28910;SDS011;16028;42.642;23.310;2023-08-07T10:18:32;2.22;;;2.03;;
28910;SDS011;16028;42.642;23.310;2023-08-07T10:21:00;2.65;;;2.00;;
28910;SDS011;16028;42.642;23.310;2023-08-07T10:23:28;2.10;;;1.88;;
28910;SDS011;16028;42.642;23.310;2023-08-07T10:25:54;3.88;;;1.77;;
28910;SDS011;16028;42.642;23.310;2023-08-07T10:28:22;1.75;;;1.65;;
28910;SDS011;16028;42.642;23.310;2023-08-07T10:30:52;4.65;;;2.00;;
28910;SDS011;16028;42.642;23.310;2023-08-07T10:33:19;5.05;;;2.17;;
28910;SDS011;16028;42.642;23.310;2023-08-07T10:35:48;2.42;;;1.60;;
28910;SDS011;16028;42.642;23.310;2023-08-07T10:38:15;3.65;;;1.58;;
28910;SDS011;16028;42.642;23.310;2023-08-07T10:40:58;1.80;;;1.70;;
28910;SDS011;16028;42.642;23.310;2023-08-07T10:43:28;1.92;;;1.83;;
28910;SDS011;16028;42.642;23.310;2023-08-07T10:46:03;2.72;;;2.33;;
28910;SDS011;16028;42.642;23.310;2023-08-07T10:48:37;3.20;;;1.77;;
28910;SDS011;16028;42.642;23.310;2023-08-07T10:51:04;4.82;;;2.00;;
28910;SDS011;16028;42.642;23.310;2023-08-07T10:53:32;6.25;;;1.90;;
28910;SDS011;16028;42.642;23.310;2023-08-07T10:56:01;2.90;;;1.70;;
28910;SDS011;16028;42.642;23.310;2023-08-07T10:58:29;1.65;;;1.55;;
28910;SDS011;16028;42.642;23.310;2023-08-07T11:01:17;2.78;;;1.88;;
28910;SDS011;16028;42.642;23.310;2023-08-07T11:03:45;4.15;;;2.00;;
28910;SDS011;16028;42.642;23.310;2023-08-07T11:06:15;8.90;;;1.98;;
28910;SDS011;16028;42.642;23.310;2023-08-07T11:08:42;1.65;;;1.55;;
28910;SDS011;16028;42.642;23.310;2023-08-07T11:11:09;2.10;;;1.90;;
28910;SDS011;16028;42.642;23.310;2023-08-07T11:13:36;2.67;;;2.00;;
28910;SDS011;16028;42.642;23.310;2023-08-07T11:16:03;2.38;;;1.95;;
28910;SDS011;16028;42.642;23.310;2023-08-07T11:18:31;1.92;;;1.60;;
28910;SDS011;16028;42.642;23.310;2023-08-07T11:21:00;2.00;;;1.48;;
28910;SDS011;16028;42.642;23.310;2023-08-07T11:23:27;5.00;;;2.00;;
28910;SDS011;16028;42.642;23.310;2023-08-07T11:25:55;4.75;;;1.75;;
28910;SDS011;16028;42.642;23.310;2023-08-07T11:28:22;2.28;;;1.75;;
28910;SDS011;16028;42.642;23.310;2023-08-07T11:30:50;3.45;;;1.70;;
28910;SDS011;16028;42.642;23.310;2023-08-07T11:33:17;5.78;;;1.80;;
28910;SDS011;16028;42.642;23.310;2023-08-07T11:35:46;2.25;;;1.73;;
28910;SDS011;16028;42.642;23.310;2023-08-07T11:38:15;3.45;;;1.90;;
28910;SDS011;16028;42.642;23.310;2023-08-07T11:40:56;3.78;;;2.20;;
28910;SDS011;16028;42.642;23.310;2023-08-07T11:43:23;3.13;;;2.00;;
28910;SDS011;16028;42.642;23.310;2023-08-07T11:45:50;5.50;;;2.30;;
28910;SDS011;16028;42.642;23.310;2023-08-07T11:48:17;2.42;;;1.67;;
28910;SDS011;16028;42.642;23.310;2023-08-07T11:50:45;3.55;;;1.92;;
28910;SDS011;16028;42.642;23.310;2023-08-07T11:53:12;3.10;;;1.63;;
28910;SDS011;16028;42.642;23.310;2023-08-07T11:55:46;2.17;;;1.98;;
28910;SDS011;16028;42.642;23.310;2023-08-07T11:58:13;2.60;;;2.25;;
28910;SDS011;16028;42.642;23.310;2023-08-07T12:00:41;4.10;;;2.80;;
28910;SDS011;16028;42.642;23.310;2023-08-07T12:03:22;2.10;;;1.90;;
28910;SDS011;16028;42.642;23.310;2023-08-07T12:05:52;5.63;;;2.15;;
28910;SDS011;16028;42.642;23.310;2023-08-07T12:08:19;3.25;;;2.78;;
28910;SDS011;16028;42.642;23.310;2023-08-07T12:10:48;4.28;;;1.90;;
28910;SDS011;16028;42.642;23.310;2023-08-07T12:13:16;3.65;;;2.15;;
28910;SDS011;16028;42.642;23.310;2023-08-07T12:15:46;5.03;;;2.17;;
28910;SDS011;16028;42.642;23.310;2023-08-07T12:18:17;3.03;;;1.83;;
28910;SDS011;16028;42.642;23.310;2023-08-07T12:20:44;2.88;;;2.00;;
28910;SDS011;16028;42.642;23.310;2023-08-07T12:23:15;5.63;;;1.80;;
28910;SDS011;16028;42.642;23.310;2023-08-07T12:25:42;1.65;;;1.50;;
28910;SDS011;16028;42.642;23.310;2023-08-07T12:28:09;2.60;;;1.92;;
28910;SDS011;16028;42.642;23.310;2023-08-07T12:30:36;4.47;;;1.70;;
28910;SDS011;16028;42.642;23.310;2023-08-07T12:33:03;2.70;;;1.73;;
28910;SDS011;16028;42.642;23.310;2023-08-07T12:35:32;3.08;;;1.60;;
28910;SDS011;16028;42.642;23.310;2023-08-07T12:37:59;1.60;;;1.50;;
28910;SDS011;16028;42.642;23.310;2023-08-07T12:40:28;3.55;;;1.90;;
28910;SDS011;16028;42.642;23.310;2023-08-07T12:42:55;4.15;;;1.80;;
28910;SDS011;16028;42.642;23.310;2023-08-07T12:45:22;2.22;;;1.90;;
28910;SDS011;16028;42.642;23.310;2023-08-07T12:47:49;3.95;;;1.90;;
28910;SDS011;16028;42.642;23.310;2023-08-07T12:50:16;1.83;;;1.73;;
28910;SDS011;16028;42.642;23.310;2023-08-07T12:52:43;2.70;;;1.80;;
28910;SDS011;16028;42.642;23.310;2023-08-07T12:55:10;2.42;;;1.90;;
28910;SDS011;16028;42.642;23.310;2023-08-07T12:57:39;3.13;;;1.80;;
28910;SDS011;16028;42.642;23.310;2023-08-07T13:00:07;2.47;;;1.70;;
28910;SDS011;16028;42.642;23.310;2023-08-07T13:02:37;2.70;;;1.70;;
28910;SDS011;16028;42.642;23.310;2023-08-07T13:05:04;2.90;;;2.00;;
28910;SDS011;16028;42.642;23.310;2023-08-07T13:07:31;2.90;;;2.25;;
28910;SDS011;16028;42.642;23.310;2023-08-07T13:09:59;2.08;;;1.88;;
28910;SDS011;16028;42.642;23.310;2023-08-07T13:12:26;2.30;;;2.08;;
28910;SDS011;16028;42.642;23.310;2023-08-07T13:14:54;4.15;;;2.33;;
28910;SDS011;16028;42.642;23.310;2023-08-07T13:17:21;4.90;;;1.98;;
28910;SDS011;16028;42.642;23.310;2023-08-07T13:19:48;2.03;;;1.83;;
28910;SDS011;16028;42.642;23.310;2023-08-07T13:22:14;1.98;;;1.80;;
28910;SDS011;16028;42.642;23.310;2023-08-07T13:24:41;2.28;;;1.92;;
28910;SDS011;16028;42.642;23.310;2023-08-07T13:27:08;3.92;;;2.25;;
28910;SDS011;16028;42.642;23.310;2023-08-07T13:29:35;3.55;;;2.08;;
28910;SDS011;16028;42.642;23.310;2023-08-07T13:32:03;4.38;;;1.70;;
28910;SDS011;16028;42.642;23.310;2023-08-07T13:34:34;6.57;;;1.90;;
28910;SDS011;16028;42.642;23.310;2023-08-07T13:37:01;4.22;;;1.90;;
28910;SDS011;16028;42.642;23.310;2023-08-07T13:39:28;2.17;;;2.00;;
28910;SDS011;16028;42.642;23.310;2023-08-07T13:41:55;2.88;;;1.70;;
28910;SDS011;16028;42.642;23.310;2023-08-07T13:44:22;3.35;;;1.70;;
28910;SDS011;16028;42.642;23.310;2023-08-07T13:46:49;2.20;;;2.00;;
28910;SDS011;16028;42.642;23.310;2023-08-07T13:49:17;3.05;;;2.00;;
28910;SDS011;16028;42.642;23.310;2023-08-07T13:51:45;3.75;;;1.73;;
28910;SDS011;16028;42.642;23.310;2023-08-07T13:54:12;2.15;;;1.73;;
28910;SDS011;16028;42.642;23.310;2023-08-07T13:56:39;4.55;;;1.80;;
28910;SDS011;16028;42.642;23.310;2023-08-07T13:59:06;1.95;;;1.70;;
28910;SDS011;16028;42.642;23.310;2023-08-07T14:01:33;2.05;;;1.70;;
28910;SDS011;16028;42.642;23.310;2023-08-07T14:04:00;2.80;;;1.63;;
28910;SDS011;16028;42.642;23.310;2023-08-07T14:06:28;2.38;;;2.05;;
28910;SDS011;16028;42.642;23.310;2023-08-07T14:08:55;3.78;;;2.00;;
28910;SDS011;16028;42.642;23.310;2023-08-07T14:11:22;1.95;;;1.73;;
28910;SDS011;16028;42.642;23.310;2023-08-07T14:13:52;3.03;;;2.60;;
28910;SDS011;16028;42.642;23.310;2023-08-07T14:16:19;4.07;;;1.83;;
28910;SDS011;16028;42.642;23.310;2023-08-07T14:18:47;2.80;;;2.10;;
28910;SDS011;16028;42.642;23.310;2023-08-07T14:21:14;2.78;;;1.70;;
28910;SDS011;16028;42.642;23.310;2023-08-07T14:23:42;6.07;;;1.90;;
28910;SDS011;16028;42.642;23.310;2023-08-07T14:26:10;1.80;;;1.70;;
28910;SDS011;16028;42.642;23.310;2023-08-07T14:28:37;2.47;;;2.00;;
28910;SDS011;16028;42.642;23.310;2023-08-07T14:31:06;1.67;;;1.58;;
28910;SDS011;16028;42.642;23.310;2023-08-07T14:33:33;2.03;;;1.90;;
28910;SDS011;16028;42.642;23.310;2023-08-07T14:36:01;3.67;;;3.10;;